Main page
METAR-TAF:

METAR-TAF

Airports :

Istanbul Atatürk, Turkey

Istanbul Atatürk Airport

latitude: 40-58N, longitude: 028-49E, elevation: 48 m

Current weather observation

The report was made 24 minutes ago, at 01:50 UTC
Wind 8 kt from the North
Temperature 23°C
Humidity 94%
Pressure 1013 hPa
Visibility 10 km or more
no clouds below 1500 m and no cumulonimbus

METAR: LTBA 200150Z 35008KT CAVOK 23/22 Q1013 NOSIG

Time: 05:14 (02:14 UTC)

Forecast

The report was made 3 hours and 34 minutes ago, at 22:40 UTC
Forecast valid from 20 at 00 UTC to 21 at 06 UTC
Wind 2 kt from variable directions
Visibility 10 km or more
Few clouds at a height of 1500 ft
Probability 30%
from 20 at 03 UTC to 20 at 07 UTC
Few clouds at a height of 2000 ft, Towering cumulus.
Broken clouds at a height of 3000 ft
light rain showers
Becoming
from 20 at 05 UTC to 20 at 08 UTC
Wind 12 kt from the North/Northeast

TAF: LTBA 192240Z 2000/2106 VRB02KT 9999 FEW015 PROB30 2003/2007 -SHRA FEW020TCU BKN030 BECMG 2005/2008 03012KT

Weather observations and forecasts of more than 4000 airports (METAR and TAF reports).

The available stations are represented by yellow and red dots on the map.

Hover mouse over dot to see the name of the station.

Then click to see weather observations and forecasts.

To change the map : click on the green buttons with a black cross to zoom in, on the green button with a dash to zoom out, or on the green arrows for adjacent maps.


METAR-TAF: